sensor_id;sensor_type;location;lat;lon;timestamp;P1;durP1;ratioP1;P2;durP2;ratioP2
4409;SDS011;2218;51.408;7.208;2023-07-20T00:01:35;0.80;;;0.73;;
4409;SDS011;2218;51.408;7.208;2023-07-20T00:04:03;0.70;;;0.60;;
4409;SDS011;2218;51.408;7.208;2023-07-20T00:06:30;0.70;;;0.60;;
4409;SDS011;2218;51.408;7.208;2023-07-20T00:08:57;0.70;;;0.60;;
4409;SDS011;2218;51.408;7.208;2023-07-20T00:11:25;0.80;;;0.60;;
4409;SDS011;2218;51.408;7.208;2023-07-20T00:13:55;0.80;;;0.80;;
4409;SDS011;2218;51.408;7.208;2023-07-20T00:16:22;0.90;;;0.70;;
4409;SDS011;2218;51.408;7.208;2023-07-20T00:18:48;0.80;;;0.60;;
4409;SDS011;2218;51.408;7.208;2023-07-20T00:21:15;0.70;;;0.50;;
4409;SDS011;2218;51.408;7.208;2023-07-20T00:23:42;0.70;;;0.70;;
4409;SDS011;2218;51.408;7.208;2023-07-20T00:26:09;0.80;;;0.70;;
4409;SDS011;2218;51.408;7.208;2023-07-20T00:28:36;0.80;;;0.77;;
4409;SDS011;2218;51.408;7.208;2023-07-20T00:31:05;0.70;;;0.60;;
4409;SDS011;2218;51.408;7.208;2023-07-20T00:33:32;0.80;;;0.70;;
4409;SDS011;2218;51.408;7.208;2023-07-20T00:35:59;0.80;;;0.70;;
4409;SDS011;2218;51.408;7.208;2023-07-20T00:38:25;0.70;;;0.70;;
4409;SDS011;2218;51.408;7.208;2023-07-20T00:40:52;0.70;;;0.67;;
4409;SDS011;2218;51.408;7.208;2023-07-20T00:43:19;1.27;;;0.80;;
4409;SDS011;2218;51.408;7.208;2023-07-20T00:45:46;0.87;;;0.87;;
4409;SDS011;2218;51.408;7.208;2023-07-20T00:48:15;2.50;;;0.90;;
4409;SDS011;2218;51.408;7.208;2023-07-20T00:50:42;0.87;;;0.80;;
4409;SDS011;2218;51.408;7.208;2023-07-20T00:53:11;0.80;;;0.60;;
4409;SDS011;2218;51.408;7.208;2023-07-20T00:55:38;0.80;;;0.70;;
4409;SDS011;2218;51.408;7.208;2023-07-20T00:58:06;0.80;;;0.60;;
4409;SDS011;2218;51.408;7.208;2023-07-20T01:00:34;0.70;;;0.67;;
4409;SDS011;2218;51.408;7.208;2023-07-20T01:03:01;0.70;;;0.60;;
4409;SDS011;2218;51.408;7.208;2023-07-20T01:05:31;0.80;;;0.70;;
4409;SDS011;2218;51.408;7.208;2023-07-20T01:08:08;0.70;;;0.60;;
4409;SDS011;2218;51.408;7.208;2023-07-20T01:10:45;0.80;;;0.67;;
4409;SDS011;2218;51.408;7.208;2023-07-20T01:13:20;0.80;;;0.80;;
4409;SDS011;2218;51.408;7.208;2023-07-20T01:15:53;0.70;;;0.60;;
4409;SDS011;2218;51.408;7.208;2023-07-20T01:18:24;0.70;;;0.60;;
4409;SDS011;2218;51.408;7.208;2023-07-20T01:20:53;0.70;;;0.70;;
4409;SDS011;2218;51.408;7.208;2023-07-20T01:23:29;0.70;;;0.60;;
4409;SDS011;2218;51.408;7.208;2023-07-20T01:26:27;1.20;;;0.80;;
4409;SDS011;2218;51.408;7.208;2023-07-20T01:29:36;0.80;;;0.60;;
4409;SDS011;2218;51.408;7.208;2023-07-20T01:32:30;0.90;;;0.67;;
4409;SDS011;2218;51.408;7.208;2023-07-20T01:34:58;1.00;;;0.70;;
4409;SDS011;2218;51.408;7.208;2023-07-20T01:37:27;0.80;;;0.70;;
4409;SDS011;2218;51.408;7.208;2023-07-20T01:39:58;0.70;;;0.60;;
4409;SDS011;2218;51.408;7.208;2023-07-20T01:42:26;0.80;;;0.70;;
4409;SDS011;2218;51.408;7.208;2023-07-20T01:44:53;0.73;;;0.70;;
4409;SDS011;2218;51.408;7.208;2023-07-20T01:47:23;0.80;;;0.60;;
4409;SDS011;2218;51.408;7.208;2023-07-20T01:49:51;0.80;;;0.70;;
4409;SDS011;2218;51.408;7.208;2023-07-20T01:52:18;0.80;;;0.60;;
4409;SDS011;2218;51.408;7.208;2023-07-20T01:54:45;0.83;;;0.70;;
4409;SDS011;2218;51.408;7.208;2023-07-20T01:57:12;0.80;;;0.80;;
4409;SDS011;2218;51.408;7.208;2023-07-20T01:59:39;0.70;;;0.60;;
4409;SDS011;2218;51.408;7.208;2023-07-20T02:02:06;0.80;;;0.70;;
4409;SDS011;2218;51.408;7.208;2023-07-20T02:04:33;0.90;;;0.90;;
4409;SDS011;2218;51.408;7.208;2023-07-20T02:07:01;0.70;;;0.70;;
4409;SDS011;2218;51.408;7.208;2023-07-20T02:09:28;0.70;;;0.60;;
4409;SDS011;2218;51.408;7.208;2023-07-20T02:11:55;0.70;;;0.60;;
4409;SDS011;2218;51.408;7.208;2023-07-20T02:14:22;0.80;;;0.70;;
4409;SDS011;2218;51.408;7.208;2023-07-20T02:16:49;0.70;;;0.60;;
4409;SDS011;2218;51.408;7.208;2023-07-20T02:19:19;0.80;;;0.70;;
4409;SDS011;2218;51.408;7.208;2023-07-20T02:21:47;0.70;;;0.60;;
4409;SDS011;2218;51.408;7.208;2023-07-20T02:24:15;0.70;;;0.60;;
4409;SDS011;2218;51.408;7.208;2023-07-20T02:26:42;0.67;;;0.50;;
4409;SDS011;2218;51.408;7.208;2023-07-20T02:29:09;0.70;;;0.60;;
4409;SDS011;2218;51.408;7.208;2023-07-20T02:31:36;4.60;;;0.90;;
4409;SDS011;2218;51.408;7.208;2023-07-20T02:34:04;0.80;;;0.60;;
4409;SDS011;2218;51.408;7.208;2023-07-20T02:36:31;0.77;;;0.60;;
4409;SDS011;2218;51.408;7.208;2023-07-20T02:38:58;0.80;;;0.80;;
4409;SDS011;2218;51.408;7.208;2023-07-20T02:41:28;0.70;;;0.60;;
4409;SDS011;2218;51.408;7.208;2023-07-20T02:43:56;0.70;;;0.60;;
4409;SDS011;2218;51.408;7.208;2023-07-20T02:46:23;0.80;;;0.77;;
4409;SDS011;2218;51.408;7.208;2023-07-20T02:48:50;0.80;;;0.63;;
4409;SDS011;2218;51.408;7.208;2023-07-20T02:51:17;0.80;;;0.67;;
4409;SDS011;2218;51.408;7.208;2023-07-20T02:53:44;0.80;;;0.60;;
4409;SDS011;2218;51.408;7.208;2023-07-20T02:56:10;0.80;;;0.60;;
4409;SDS011;2218;51.408;7.208;2023-07-20T02:58:39;0.90;;;0.70;;
4409;SDS011;2218;51.408;7.208;2023-07-20T03:01:10;0.70;;;0.60;;
4409;SDS011;2218;51.408;7.208;2023-07-20T03:03:38;0.70;;;0.70;;
4409;SDS011;2218;51.408;7.208;2023-07-20T03:06:05;0.73;;;0.67;;
4409;SDS011;2218;51.408;7.208;2023-07-20T03:08:34;0.77;;;0.60;;
4409;SDS011;2218;51.408;7.208;2023-07-20T03:11:01;0.70;;;0.63;;
4409;SDS011;2218;51.408;7.208;2023-07-20T03:13:28;0.80;;;0.60;;
4409;SDS011;2218;51.408;7.208;2023-07-20T03:15:57;0.80;;;0.70;;
4409;SDS011;2218;51.408;7.208;2023-07-20T03:18:24;0.73;;;0.60;;
4409;SDS011;2218;51.408;7.208;2023-07-20T03:20:51;0.77;;;0.70;;
4409;SDS011;2218;51.408;7.208;2023-07-20T03:23:18;0.70;;;0.60;;
4409;SDS011;2218;51.408;7.208;2023-07-20T03:25:45;0.80;;;0.60;;
4409;SDS011;2218;51.408;7.208;2023-07-20T03:28:12;0.70;;;0.70;;
4409;SDS011;2218;51.408;7.208;2023-07-20T03:30:39;0.80;;;0.70;;
4409;SDS011;2218;51.408;7.208;2023-07-20T03:33:08;0.80;;;0.60;;
4409;SDS011;2218;51.408;7.208;2023-07-20T03:35:35;1.10;;;0.80;;
4409;SDS011;2218;51.408;7.208;2023-07-20T03:38:03;0.70;;;0.63;;
4409;SDS011;2218;51.408;7.208;2023-07-20T03:40:30;0.80;;;0.60;;
4409;SDS011;2218;51.408;7.208;2023-07-20T03:42:57;0.80;;;0.67;;
4409;SDS011;2218;51.408;7.208;2023-07-20T03:45:24;0.70;;;0.60;;
4409;SDS011;2218;51.408;7.208;2023-07-20T03:47:51;0.83;;;0.50;;
4409;SDS011;2218;51.408;7.208;2023-07-20T03:50:19;0.80;;;0.60;;
4409;SDS011;2218;51.408;7.208;2023-07-20T03:52:46;0.80;;;0.77;;
4409;SDS011;2218;51.408;7.208;2023-07-20T03:55:13;0.80;;;0.70;;
4409;SDS011;2218;51.408;7.208;2023-07-20T03:57:40;0.80;;;0.60;;
4409;SDS011;2218;51.408;7.208;2023-07-20T04:00:08;0.80;;;0.70;;
4409;SDS011;2218;51.408;7.208;2023-07-20T04:02:40;0.70;;;0.60;;
4409;SDS011;2218;51.408;7.208;2023-07-20T04:05:07;1.07;;;0.67;;
4409;SDS011;2218;51.408;7.208;2023-07-20T04:07:35;0.87;;;0.70;;
4409;SDS011;2218;51.408;7.208;2023-07-20T04:10:01;0.93;;;0.60;;
4409;SDS011;2218;51.408;7.208;2023-07-20T04:12:29;0.80;;;0.80;;
4409;SDS011;2218;51.408;7.208;2023-07-20T04:14:56;0.70;;;0.70;;
4409;SDS011;2218;51.408;7.208;2023-07-20T04:17:23;0.80;;;0.57;;
4409;SDS011;2218;51.408;7.208;2023-07-20T04:19:49;0.80;;;0.80;;
4409;SDS011;2218;51.408;7.208;2023-07-20T04:22:17;0.87;;;0.80;;
4409;SDS011;2218;51.408;7.208;2023-07-20T04:24:45;0.80;;;0.70;;
4409;SDS011;2218;51.408;7.208;2023-07-20T04:27:12;0.80;;;0.73;;
4409;SDS011;2218;51.408;7.208;2023-07-20T04:29:39;0.80;;;0.70;;
4409;SDS011;2218;51.408;7.208;2023-07-20T04:32:06;0.80;;;0.70;;
4409;SDS011;2218;51.408;7.208;2023-07-20T04:34:35;0.80;;;0.80;;
4409;SDS011;2218;51.408;7.208;2023-07-20T04:37:03;0.80;;;0.80;;
4409;SDS011;2218;51.408;7.208;2023-07-20T04:39:30;0.77;;;0.60;;
4409;SDS011;2218;51.408;7.208;2023-07-20T04:42:03;0.77;;;0.73;;
4409;SDS011;2218;51.408;7.208;2023-07-20T04:44:31;0.77;;;0.67;;
4409;SDS011;2218;51.408;7.208;2023-07-20T04:46:58;0.80;;;0.80;;
4409;SDS011;2218;51.408;7.208;2023-07-20T04:49:25;3.17;;;0.80;;
4409;SDS011;2218;51.408;7.208;2023-07-20T04:51:52;0.87;;;0.67;;
4409;SDS011;2218;51.408;7.208;2023-07-20T04:54:20;0.70;;;0.63;;
4409;SDS011;2218;51.408;7.208;2023-07-20T04:56:47;0.80;;;0.80;;
4409;SDS011;2218;51.408;7.208;2023-07-20T04:59:16;0.80;;;0.80;;
4409;SDS011;2218;51.408;7.208;2023-07-20T05:01:43;0.80;;;0.80;;
4409;SDS011;2218;51.408;7.208;2023-07-20T05:04:09;0.80;;;0.70;;
4409;SDS011;2218;51.408;7.208;2023-07-20T05:06:36;1.07;;;0.97;;
4409;SDS011;2218;51.408;7.208;2023-07-20T05:09:04;0.80;;;0.80;;
4409;SDS011;2218;51.408;7.208;2023-07-20T05:11:32;1.10;;;0.80;;
4409;SDS011;2218;51.408;7.208;2023-07-20T05:14:00;0.77;;;0.70;;
4409;SDS011;2218;51.408;7.208;2023-07-20T05:16:29;0.80;;;0.70;;
4409;SDS011;2218;51.408;7.208;2023-07-20T05:19:01;0.80;;;0.70;;
4409;SDS011;2218;51.408;7.208;2023-07-20T05:21:28;0.90;;;0.90;;
4409;SDS011;2218;51.408;7.208;2023-07-20T05:23:55;1.03;;;0.93;;
4409;SDS011;2218;51.408;7.208;2023-07-20T05:26:22;0.80;;;0.80;;
4409;SDS011;2218;51.408;7.208;2023-07-20T05:28:49;1.20;;;1.10;;
4409;SDS011;2218;51.408;7.208;2023-07-20T05:31:16;0.97;;;0.90;;
4409;SDS011;2218;51.408;7.208;2023-07-20T05:33:44;1.00;;;1.00;;
4409;SDS011;2218;51.408;7.208;2023-07-20T05:36:11;1.20;;;1.00;;
4409;SDS011;2218;51.408;7.208;2023-07-20T05:38:38;1.07;;;0.90;;
4409;SDS011;2218;51.408;7.208;2023-07-20T05:41:05;0.73;;;0.73;;
4409;SDS011;2218;51.408;7.208;2023-07-20T05:43:35;1.23;;;1.13;;
4409;SDS011;2218;51.408;7.208;2023-07-20T05:46:02;1.00;;;1.00;;
4409;SDS011;2218;51.408;7.208;2023-07-20T05:48:30;1.17;;;1.07;;
4409;SDS011;2218;51.408;7.208;2023-07-20T05:50:59;0.97;;;0.97;;
4409;SDS011;2218;51.408;7.208;2023-07-20T05:53:26;1.07;;;1.07;;
4409;SDS011;2218;51.408;7.208;2023-07-20T05:55:53;1.30;;;1.20;;
4409;SDS011;2218;51.408;7.208;2023-07-20T05:58:20;1.40;;;1.30;;
4409;SDS011;2218;51.408;7.208;2023-07-20T06:00:47;1.17;;;1.17;;
4409;SDS011;2218;51.408;7.208;2023-07-20T06:03:15;0.80;;;0.77;;
4409;SDS011;2218;51.408;7.208;2023-07-20T06:05:42;0.93;;;0.93;;
4409;SDS011;2218;51.408;7.208;2023-07-20T06:08:11;1.13;;;1.03;;
4409;SDS011;2218;51.408;7.208;2023-07-20T06:10:38;1.20;;;1.10;;
4409;SDS011;2218;51.408;7.208;2023-07-20T06:13:05;1.33;;;1.23;;
4409;SDS011;2218;51.408;7.208;2023-07-20T06:15:32;1.20;;;1.10;;
4409;SDS011;2218;51.408;7.208;2023-07-20T06:18:01;0.80;;;0.80;;
4409;SDS011;2218;51.408;7.208;2023-07-20T06:20:29;1.13;;;1.03;;
4409;SDS011;2218;51.408;7.208;2023-07-20T06:22:55;1.10;;;1.03;;
4409;SDS011;2218;51.408;7.208;2023-07-20T06:25:24;1.20;;;1.10;;
4409;SDS011;2218;51.408;7.208;2023-07-20T06:27:51;1.13;;;1.07;;
4409;SDS011;2218;51.408;7.208;2023-07-20T06:30:18;1.10;;;1.10;;
4409;SDS011;2218;51.408;7.208;2023-07-20T06:32:46;1.20;;;1.10;;
4409;SDS011;2218;51.408;7.208;2023-07-20T06:35:13;1.00;;;0.90;;
4409;SDS011;2218;51.408;7.208;2023-07-20T06:37:42;0.80;;;0.80;;
4409;SDS011;2218;51.408;7.208;2023-07-20T06:40:09;1.60;;;1.50;;
4409;SDS011;2218;51.408;7.208;2023-07-20T06:42:38;1.40;;;1.30;;
4409;SDS011;2218;51.408;7.208;2023-07-20T06:45:06;1.53;;;1.43;;
4409;SDS011;2218;51.408;7.208;2023-07-20T06:47:34;1.30;;;1.20;;
4409;SDS011;2218;51.408;7.208;2023-07-20T06:50:00;1.30;;;1.20;;
4409;SDS011;2218;51.408;7.208;2023-07-20T06:52:27;1.10;;;1.07;;
4409;SDS011;2218;51.408;7.208;2023-07-20T06:54:55;1.27;;;1.17;;
4409;SDS011;2218;51.408;7.208;2023-07-20T06:57:22;1.20;;;1.10;;
4409;SDS011;2218;51.408;7.208;2023-07-20T06:59:50;0.77;;;0.77;;
4409;SDS011;2218;51.408;7.208;2023-07-20T07:02:18;1.23;;;1.13;;
4409;SDS011;2218;51.408;7.208;2023-07-20T07:04:45;1.30;;;1.20;;
4409;SDS011;2218;51.408;7.208;2023-07-20T07:07:13;1.00;;;0.90;;
4409;SDS011;2218;51.408;7.208;2023-07-20T07:09:40;1.10;;;1.00;;
4409;SDS011;2218;51.408;7.208;2023-07-20T07:12:07;1.10;;;1.00;;
4409;SDS011;2218;51.408;7.208;2023-07-20T07:14:35;1.30;;;1.20;;
4409;SDS011;2218;51.408;7.208;2023-07-20T07:17:03;1.00;;;1.00;;
4409;SDS011;2218;51.408;7.208;2023-07-20T07:19:31;1.27;;;1.17;;
4409;SDS011;2218;51.408;7.208;2023-07-20T07:21:58;1.10;;;1.00;;
4409;SDS011;2218;51.408;7.208;2023-07-20T07:24:25;1.23;;;1.13;;
4409;SDS011;2218;51.408;7.208;2023-07-20T07:26:52;1.30;;;1.20;;
4409;SDS011;2218;51.408;7.208;2023-07-20T07:29:19;1.13;;;1.03;;
4409;SDS011;2218;51.408;7.208;2023-07-20T07:31:46;1.10;;;1.00;;
4409;SDS011;2218;51.408;7.208;2023-07-20T07:34:15;1.20;;;1.10;;
4409;SDS011;2218;51.408;7.208;2023-07-20T07:36:41;2.60;;;1.37;;
4409;SDS011;2218;51.408;7.208;2023-07-20T07:39:09;1.00;;;0.93;;
4409;SDS011;2218;51.408;7.208;2023-07-20T07:41:36;1.20;;;1.10;;
4409;SDS011;2218;51.408;7.208;2023-07-20T07:44:03;1.20;;;1.10;;
4409;SDS011;2218;51.408;7.208;2023-07-20T07:46:30;1.00;;;1.00;;
4409;SDS011;2218;51.408;7.208;2023-07-20T07:48:57;1.00;;;0.90;;
4409;SDS011;2218;51.408;7.208;2023-07-20T07:51:26;2.37;;;1.07;;
4409;SDS011;2218;51.408;7.208;2023-07-20T07:53:53;1.17;;;1.07;;
4409;SDS011;2218;51.408;7.208;2023-07-20T07:56:20;1.03;;;0.77;;
4409;SDS011;2218;51.408;7.208;2023-07-20T07:58:47;1.10;;;1.03;;
4409;SDS011;2218;51.408;7.208;2023-07-20T08:01:14;1.03;;;0.93;;
4409;SDS011;2218;51.408;7.208;2023-07-20T08:03:41;1.40;;;1.30;;
4409;SDS011;2218;51.408;7.208;2023-07-20T08:06:10;1.37;;;1.27;;
4409;SDS011;2218;51.408;7.208;2023-07-20T08:08:39;1.03;;;1.03;;
4409;SDS011;2218;51.408;7.208;2023-07-20T08:11:06;1.10;;;1.00;;
4409;SDS011;2218;51.408;7.208;2023-07-20T08:13:33;1.00;;;1.00;;
4409;SDS011;2218;51.408;7.208;2023-07-20T08:16:00;3.47;;;1.03;;
4409;SDS011;2218;51.408;7.208;2023-07-20T08:18:28;3.30;;;1.10;;
4409;SDS011;2218;51.408;7.208;2023-07-20T08:20:56;1.10;;;1.00;;
4409;SDS011;2218;51.408;7.208;2023-07-20T08:23:23;1.13;;;1.03;;
4409;SDS011;2218;51.408;7.208;2023-07-20T08:25:51;1.00;;;0.90;;
4409;SDS011;2218;51.408;7.208;2023-07-20T08:28:18;1.20;;;1.10;;
4409;SDS011;2218;51.408;7.208;2023-07-20T08:30:46;1.27;;;0.87;;
4409;SDS011;2218;51.408;7.208;2023-07-20T08:33:15;2.60;;;1.23;;
4409;SDS011;2218;51.408;7.208;2023-07-20T08:35:45;1.17;;;1.07;;
4409;SDS011;2218;51.408;7.208;2023-07-20T08:38:13;1.00;;;1.00;;
4409;SDS011;2218;51.408;7.208;2023-07-20T08:40:40;2.60;;;1.17;;
4409;SDS011;2218;51.408;7.208;2023-07-20T08:43:11;1.27;;;1.17;;
4409;SDS011;2218;51.408;7.208;2023-07-20T08:45:41;1.10;;;1.00;;
4409;SDS011;2218;51.408;7.208;2023-07-20T08:48:10;1.00;;;0.83;;
4409;SDS011;2218;51.408;7.208;2023-07-20T08:50:39;1.00;;;1.00;;
4409;SDS011;2218;51.408;7.208;2023-07-20T08:53:07;1.17;;;1.07;;
4409;SDS011;2218;51.408;7.208;2023-07-20T08:55:36;0.97;;;0.97;;
4409;SDS011;2218;51.408;7.208;2023-07-20T08:58:03;0.90;;;0.90;;
4409;SDS011;2218;51.408;7.208;2023-07-20T09:00:36;1.53;;;1.20;;
4409;SDS011;2218;51.408;7.208;2023-07-20T09:03:03;1.00;;;1.00;;
4409;SDS011;2218;51.408;7.208;2023-07-20T09:05:31;0.93;;;0.93;;
4409;SDS011;2218;51.408;7.208;2023-07-20T09:07:57;0.90;;;0.90;;
4409;SDS011;2218;51.408;7.208;2023-07-20T09:10:25;1.20;;;1.10;;
4409;SDS011;2218;51.408;7.208;2023-07-20T09:12:52;2.90;;;1.23;;
4409;SDS011;2218;51.408;7.208;2023-07-20T09:15:20;1.20;;;1.10;;
4409;SDS011;2218;51.408;7.208;2023-07-20T09:17:50;0.83;;;0.83;;
4409;SDS011;2218;51.408;7.208;2023-07-20T09:20:19;1.23;;;1.00;;
4409;SDS011;2218;51.408;7.208;2023-07-20T09:22:47;0.90;;;0.90;;
4409;SDS011;2218;51.408;7.208;2023-07-20T09:25:15;0.80;;;0.80;;
4409;SDS011;2218;51.408;7.208;2023-07-20T09:27:45;1.90;;;1.20;;
4409;SDS011;2218;51.408;7.208;2023-07-20T09:30:13;0.90;;;0.90;;
4409;SDS011;2218;51.408;7.208;2023-07-20T09:32:42;1.10;;;1.00;;
4409;SDS011;2218;51.408;7.208;2023-07-20T09:35:15;0.90;;;0.80;;
4409;SDS011;2218;51.408;7.208;2023-07-20T09:37:47;1.27;;;1.17;;
4409;SDS011;2218;51.408;7.208;2023-07-20T09:40:18;0.90;;;0.90;;
4409;SDS011;2218;51.408;7.208;2023-07-20T09:42:46;1.30;;;1.20;;
4409;SDS011;2218;51.408;7.208;2023-07-20T09:45:14;1.20;;;1.10;;
4409;SDS011;2218;51.408;7.208;2023-07-20T09:47:41;1.03;;;0.93;;
4409;SDS011;2218;51.408;7.208;2023-07-20T09:50:08;1.67;;;1.00;;
4409;SDS011;2218;51.408;7.208;2023-07-20T09:52:41;1.20;;;1.10;;
4409;SDS011;2218;51.408;7.208;2023-07-20T09:55:09;1.17;;;1.07;;
4409;SDS011;2218;51.408;7.208;2023-07-20T09:57:37;1.20;;;1.10;;
4409;SDS011;2218;51.408;7.208;2023-07-20T10:00:05;1.20;;;1.10;;
4409;SDS011;2218;51.408;7.208;2023-07-20T10:02:41;1.17;;;1.10;;
4409;SDS011;2218;51.408;7.208;2023-07-20T10:05:11;1.23;;;1.13;;
4409;SDS011;2218;51.408;7.208;2023-07-20T10:07:43;1.17;;;1.10;;
4409;SDS011;2218;51.408;7.208;2023-07-20T10:10:13;1.30;;;1.20;;
4409;SDS011;2218;51.408;7.208;2023-07-20T10:12:43;2.20;;;0.90;;
4409;SDS011;2218;51.408;7.208;2023-07-20T10:15:15;0.90;;;0.90;;
4409;SDS011;2218;51.408;7.208;2023-07-20T10:17:56;1.10;;;1.00;;
4409;SDS011;2218;51.408;7.208;2023-07-20T10:20:30;1.87;;;1.40;;
4409;SDS011;2218;51.408;7.208;2023-07-20T10:23:03;1.20;;;1.10;;
4409;SDS011;2218;51.408;7.208;2023-07-20T10:25:31;1.90;;;1.10;;
4409;SDS011;2218;51.408;7.208;2023-07-20T10:28:03;1.10;;;1.00;;
4409;SDS011;2218;51.408;7.208;2023-07-20T10:30:31;0.90;;;0.80;;
4409;SDS011;2218;51.408;7.208;2023-07-20T10:33:00;1.17;;;1.03;;
4409;SDS011;2218;51.408;7.208;2023-07-20T10:35:28;1.30;;;1.20;;
4409;SDS011;2218;51.408;7.208;2023-07-20T10:37:59;1.37;;;1.27;;
4409;SDS011;2218;51.408;7.208;2023-07-20T10:40:30;1.00;;;1.00;;
4409;SDS011;2218;51.408;7.208;2023-07-20T10:42:59;1.47;;;1.10;;
4409;SDS011;2218;51.408;7.208;2023-07-20T10:45:33;1.30;;;1.20;;
4409;SDS011;2218;51.408;7.208;2023-07-20T10:48:12;1.17;;;1.07;;
4409;SDS011;2218;51.408;7.208;2023-07-20T10:50:42;1.20;;;1.10;;
4409;SDS011;2218;51.408;7.208;2023-07-20T10:53:10;1.30;;;1.20;;
4409;SDS011;2218;51.408;7.208;2023-07-20T10:55:44;1.40;;;1.30;;
4409;SDS011;2218;51.408;7.208;2023-07-20T10:58:12;1.30;;;1.20;;
4409;SDS011;2218;51.408;7.208;2023-07-20T11:03:28;1.17;;;1.10;;
4409;SDS011;2218;51.408;7.208;2023-07-20T11:05:57;1.40;;;1.30;;
4409;SDS011;2218;51.408;7.208;2023-07-20T11:08:40;1.20;;;1.10;;
4409;SDS011;2218;51.408;7.208;2023-07-20T11:13:57;1.03;;;1.00;;
4409;SDS011;2218;51.408;7.208;2023-07-20T11:16:32;1.30;;;1.20;;
4409;SDS011;2218;51.408;7.208;2023-07-20T11:19:01;1.00;;;1.00;;
4409;SDS011;2218;51.408;7.208;2023-07-20T11:21:29;1.20;;;1.10;;
4409;SDS011;2218;51.408;7.208;2023-07-20T11:24:02;1.20;;;1.10;;
4409;SDS011;2218;51.408;7.208;2023-07-20T11:26:40;1.30;;;1.20;;
4409;SDS011;2218;51.408;7.208;2023-07-20T11:29:09;1.00;;;1.00;;
4409;SDS011;2218;51.408;7.208;2023-07-20T11:31:37;1.40;;;1.30;;
4409;SDS011;2218;51.408;7.208;2023-07-20T11:34:04;1.30;;;1.20;;
4409;SDS011;2218;51.408;7.208;2023-07-20T11:36:33;1.10;;;1.10;;
4409;SDS011;2218;51.408;7.208;2023-07-20T11:39:00;1.10;;;1.00;;
4409;SDS011;2218;51.408;7.208;2023-07-20T11:41:29;1.17;;;1.07;;
4409;SDS011;2218;51.408;7.208;2023-07-20T11:43:59;1.20;;;1.10;;
4409;SDS011;2218;51.408;7.208;2023-07-20T11:46:27;1.30;;;1.20;;
4409;SDS011;2218;51.408;7.208;2023-07-20T11:48:56;1.60;;;1.50;;
4409;SDS011;2218;51.408;7.208;2023-07-20T11:51:25;1.50;;;1.30;;
4409;SDS011;2218;51.408;7.208;2023-07-20T11:53:54;1.20;;;1.10;;
4409;SDS011;2218;51.408;7.208;2023-07-20T11:56:22;0.97;;;0.97;;
4409;SDS011;2218;51.408;7.208;2023-07-20T11:58:50;1.17;;;1.10;;
4409;SDS011;2218;51.408;7.208;2023-07-20T12:01:26;1.20;;;1.10;;
4409;SDS011;2218;51.408;7.208;2023-07-20T12:03:54;1.60;;;1.50;;
4409;SDS011;2218;51.408;7.208;2023-07-20T12:06:23;1.10;;;1.00;;
4409;SDS011;2218;51.408;7.208;2023-07-20T12:08:53;1.27;;;1.17;;
4409;SDS011;2218;51.408;7.208;2023-07-20T12:11:34;1.00;;;1.00;;
4409;SDS011;2218;51.408;7.208;2023-07-20T12:14:02;1.20;;;1.10;;
4409;SDS011;2218;51.408;7.208;2023-07-20T12:16:31;1.00;;;1.00;;
4409;SDS011;2218;51.408;7.208;2023-07-20T12:18:59;0.90;;;0.90;;
4409;SDS011;2218;51.408;7.208;2023-07-20T12:21:27;2.40;;;1.03;;
4409;SDS011;2218;51.408;7.208;2023-07-20T12:23:55;1.40;;;1.30;;
4409;SDS011;2218;51.408;7.208;2023-07-20T12:26:24;2.40;;;1.20;;
4409;SDS011;2218;51.408;7.208;2023-07-20T12:28:51;1.33;;;1.23;;
4409;SDS011;2218;51.408;7.208;2023-07-20T12:31:18;1.10;;;1.00;;
4409;SDS011;2218;51.408;7.208;2023-07-20T12:33:47;1.00;;;1.00;;
4409;SDS011;2218;51.408;7.208;2023-07-20T12:36:15;0.97;;;0.97;;
4409;SDS011;2218;51.408;7.208;2023-07-20T12:38:43;1.20;;;1.10;;
4409;SDS011;2218;51.408;7.208;2023-07-20T12:41:10;1.03;;;0.93;;
4409;SDS011;2218;51.408;7.208;2023-07-20T12:43:39;2.10;;;1.07;;
4409;SDS011;2218;51.408;7.208;2023-07-20T12:46:06;1.17;;;1.07;;
4409;SDS011;2218;51.408;7.208;2023-07-20T12:48:33;1.00;;;1.00;;
4409;SDS011;2218;51.408;7.208;2023-07-20T12:51:04;1.00;;;1.00;;
4409;SDS011;2218;51.408;7.208;2023-07-20T12:53:31;1.10;;;1.00;;
4409;SDS011;2218;51.408;7.208;2023-07-20T12:55:58;0.90;;;0.90;;
4409;SDS011;2218;51.408;7.208;2023-07-20T12:58:26;1.30;;;1.20;;
4409;SDS011;2218;51.408;7.208;2023-07-20T13:00:53;1.23;;;1.13;;
4409;SDS011;2218;51.408;7.208;2023-07-20T13:03:20;1.00;;;1.00;;
4409;SDS011;2218;51.408;7.208;2023-07-20T13:05:49;1.10;;;1.00;;
4409;SDS011;2218;51.408;7.208;2023-07-20T13:08:17;1.07;;;1.00;;
4409;SDS011;2218;51.408;7.208;2023-07-20T13:10:44;1.00;;;1.00;;
4409;SDS011;2218;51.408;7.208;2023-07-20T13:13:12;1.00;;;0.90;;
4409;SDS011;2218;51.408;7.208;2023-07-20T13:15:42;0.80;;;0.80;;
4409;SDS011;2218;51.408;7.208;2023-07-20T13:18:11;0.90;;;0.90;;
4409;SDS011;2218;51.408;7.208;2023-07-20T13:20:38;0.83;;;0.83;;
4409;SDS011;2218;51.408;7.208;2023-07-20T13:23:05;1.10;;;1.00;;
4409;SDS011;2218;51.408;7.208;2023-07-20T13:25:34;0.90;;;0.90;;
4409;SDS011;2218;51.408;7.208;2023-07-20T13:28:01;0.93;;;0.93;;
4409;SDS011;2218;51.408;7.208;2023-07-20T13:30:28;1.23;;;1.00;;
4409;SDS011;2218;51.408;7.208;2023-07-20T13:32:55;0.87;;;0.87;;
4409;SDS011;2218;51.408;7.208;2023-07-20T13:35:22;0.80;;;0.80;;
4409;SDS011;2218;51.408;7.208;2023-07-20T13:37:49;0.90;;;0.90;;
4409;SDS011;2218;51.408;7.208;2023-07-20T13:40:16;1.20;;;1.10;;
4409;SDS011;2218;51.408;7.208;2023-07-20T13:42:46;2.50;;;1.17;;
4409;SDS011;2218;51.408;7.208;2023-07-20T13:45:12;1.00;;;0.80;;
4409;SDS011;2218;51.408;7.208;2023-07-20T13:47:39;1.00;;;1.00;;
4409;SDS011;2218;51.408;7.208;2023-07-20T13:50:06;1.10;;;1.00;;
4409;SDS011;2218;51.408;7.208;2023-07-20T13:52:34;1.10;;;1.03;;
4409;SDS011;2218;51.408;7.208;2023-07-20T13:55:02;0.90;;;0.90;;
4409;SDS011;2218;51.408;7.208;2023-07-20T13:57:29;1.10;;;1.10;;
4409;SDS011;2218;51.408;7.208;2023-07-20T13:59:58;1.30;;;0.80;;
4409;SDS011;2218;51.408;7.208;2023-07-20T14:02:25;0.90;;;0.90;;
4409;SDS011;2218;51.408;7.208;2023-07-20T14:04:52;1.20;;;1.10;;
4409;SDS011;2218;51.408;7.208;2023-07-20T14:07:20;1.10;;;1.00;;
4409;SDS011;2218;51.408;7.208;2023-07-20T14:09:48;1.17;;;1.07;;
4409;SDS011;2218;51.408;7.208;2023-07-20T14:12:14;1.10;;;1.00;;
4409;SDS011;2218;51.408;7.208;2023-07-20T14:14:41;1.33;;;1.17;;
4409;SDS011;2218;51.408;7.208;2023-07-20T14:17:09;0.97;;;0.87;;
4409;SDS011;2218;51.408;7.208;2023-07-20T14:19:37;0.90;;;0.90;;
4409;SDS011;2218;51.408;7.208;2023-07-20T14:22:04;1.37;;;1.20;;
4409;SDS011;2218;51.408;7.208;2023-07-20T14:24:32;0.83;;;0.83;;
4409;SDS011;2218;51.408;7.208;2023-07-20T14:26:59;0.93;;;0.90;;
4409;SDS011;2218;51.408;7.208;2023-07-20T14:29:26;0.80;;;0.80;;
4409;SDS011;2218;51.408;7.208;2023-07-20T14:31:56;1.53;;;1.00;;
4409;SDS011;2218;51.408;7.208;2023-07-20T14:34:25;0.80;;;0.80;;
4409;SDS011;2218;51.408;7.208;2023-07-20T14:36:52;0.80;;;0.80;;
4409;SDS011;2218;51.408;7.208;2023-07-20T14:39:20;1.00;;;1.00;;
4409;SDS011;2218;51.408;7.208;2023-07-20T14:41:47;1.13;;;0.80;;
4409;SDS011;2218;51.408;7.208;2023-07-20T14:44:16;1.10;;;1.03;;
4409;SDS011;2218;51.408;7.208;2023-07-20T14:46:43;1.20;;;1.10;;
4409;SDS011;2218;51.408;7.208;2023-07-20T14:49:10;1.00;;;0.80;;
4409;SDS011;2218;51.408;7.208;2023-07-20T14:51:38;0.80;;;0.80;;
4409;SDS011;2218;51.408;7.208;2023-07-20T14:54:08;0.90;;;0.90;;
4409;SDS011;2218;51.408;7.208;2023-07-20T14:56:37;1.07;;;0.97;;
4409;SDS011;2218;51.408;7.208;2023-07-20T14:59:05;0.80;;;0.80;;
4409;SDS011;2218;51.408;7.208;2023-07-20T15:01:32;1.13;;;1.00;;
4409;SDS011;2218;51.408;7.208;2023-07-20T15:03:59;0.73;;;0.70;;
4409;SDS011;2218;51.408;7.208;2023-07-20T15:06:26;0.80;;;0.80;;
4409;SDS011;2218;51.408;7.208;2023-07-20T15:08:56;0.80;;;0.80;;
4409;SDS011;2218;51.408;7.208;2023-07-20T15:11:23;2.60;;;0.90;;
4409;SDS011;2218;51.408;7.208;2023-07-20T15:13:50;0.90;;;0.90;;
4409;SDS011;2218;51.408;7.208;2023-07-20T15:16:17;1.00;;;0.90;;
4409;SDS011;2218;51.408;7.208;2023-07-20T15:18:44;1.63;;;1.00;;
4409;SDS011;2218;51.408;7.208;2023-07-20T15:21:11;2.77;;;1.00;;
4409;SDS011;2218;51.408;7.208;2023-07-20T15:23:38;2.60;;;1.10;;
4409;SDS011;2218;51.408;7.208;2023-07-20T15:26:06;2.53;;;1.17;;
4409;SDS011;2218;51.408;7.208;2023-07-20T15:28:33;7.17;;;1.07;;